createdAt,value
2022-11-28T00:01:34.977Z,7.71
2022-11-28T00:04:03.884Z,7.78
2022-11-28T00:06:33.368Z,7.78
2022-11-28T00:09:02.029Z,7.81
2022-11-28T00:11:30.220Z,7.85
2022-11-28T00:13:58.105Z,7.89
2022-11-28T00:16:26.253Z,7.70
2022-11-28T00:18:55.843Z,7.69
2022-11-28T00:21:26.116Z,7.76
2022-11-28T00:23:55.526Z,7.84
2022-11-28T00:26:25.620Z,7.83
2022-11-28T00:28:54.011Z,7.84
2022-11-28T00:31:23.986Z,7.78
2022-11-28T00:33:52.764Z,7.79
2022-11-28T00:36:21.608Z,7.79
2022-11-28T00:38:50.203Z,7.89
2022-11-28T00:41:21.507Z,7.87
2022-11-28T00:43:50.593Z,7.83
2022-11-28T00:46:20.157Z,7.81
2022-11-28T00:48:48.733Z,7.75
2022-11-28T00:51:19.440Z,7.80
2022-11-28T00:53:49.521Z,7.80
2022-11-28T00:56:21.446Z,7.78
2022-11-28T00:58:49.981Z,7.77
2022-11-28T01:01:19.486Z,7.71
2022-11-28T01:03:48.218Z,7.71
2022-11-28T01:06:22.621Z,7.78
2022-11-28T01:08:50.463Z,7.70
2022-11-28T01:11:20.473Z,7.73
2022-11-28T01:13:48.634Z,7.72
2022-11-28T01:16:16.850Z,7.70
2022-11-28T01:18:44.802Z,7.74
2022-11-28T01:21:12.948Z,7.84
2022-11-28T01:23:40.857Z,7.81
2022-11-28T01:26:10.611Z,7.82
2022-11-28T01:28:40.116Z,7.77
2022-11-28T01:31:10.041Z,7.79
2022-11-28T01:33:38.317Z,7.70
2022-11-28T01:36:07.337Z,7.65
2022-11-28T01:38:35.680Z,7.58
2022-11-28T01:41:07.108Z,7.45
2022-11-28T01:43:35.675Z,7.45
2022-11-28T01:46:06.564Z,7.46
2022-11-28T01:48:41.543Z,7.50
2022-11-28T01:51:11.091Z,7.49
2022-11-28T01:53:43.500Z,7.55
2022-11-28T01:56:16.847Z,7.47
2022-11-28T01:58:50.350Z,7.55
2022-11-28T02:01:20.757Z,7.52
2022-11-28T02:03:51.005Z,7.64
2022-11-28T02:06:21.540Z,7.62
2022-11-28T02:08:52.501Z,7.50
2022-11-28T02:11:58.316Z,7.52
2022-11-28T02:14:44.785Z,7.51
2022-11-28T02:17:25.360Z,7.43
2022-11-28T02:20:24.395Z,7.42
2022-11-28T02:23:01.077Z,7.38
2022-11-28T02:25:54.589Z,7.40
2022-11-28T02:28:45.904Z,7.37
2022-11-28T02:31:33.617Z,7.31
2022-11-28T02:34:08.405Z,7.26
2022-11-28T02:36:42.037Z,7.23
2022-11-28T02:39:15.661Z,7.25
2022-11-28T02:41:48.594Z,7.09
2022-11-28T02:44:19.081Z,7.19
2022-11-28T02:46:54.033Z,7.19
2022-11-28T02:49:29.599Z,7.16
2022-11-28T02:52:01.738Z,7.17
2022-11-28T02:54:31.744Z,7.22
2022-11-28T02:56:59.626Z,7.34
2022-11-28T02:59:34.398Z,7.36
2022-11-28T03:02:03.204Z,7.43
2022-11-28T03:04:45.851Z,7.40
2022-11-28T03:07:25.420Z,7.36
2022-11-28T03:10:04.686Z,7.47
2022-11-28T03:12:42.876Z,7.52
2022-11-28T03:15:13.536Z,7.56
2022-11-28T03:17:49.795Z,7.47
2022-11-28T03:20:24.673Z,7.52
2022-11-28T03:23:03.028Z,7.46
2022-11-28T03:25:37.024Z,7.45
2022-11-28T03:28:10.042Z,7.39
2022-11-28T03:30:43.982Z,7.44
2022-11-28T03:33:13.963Z,7.32
2022-11-28T03:35:50.340Z,7.27
2022-11-28T03:38:22.797Z,7.29
2022-11-28T03:40:55.455Z,7.25
2022-11-28T03:43:29.066Z,7.31
2022-11-28T03:46:00.514Z,7.43
2022-11-28T03:48:32.298Z,7.29
2022-11-28T03:51:07.533Z,7.52
2022-11-28T03:53:43.633Z,7.47
2022-11-28T03:56:16.975Z,7.55
2022-11-28T03:58:50.817Z,7.47
2022-11-28T04:01:29.495Z,7.45
2022-11-28T04:04:15.765Z,7.41
2022-11-28T04:06:55.549Z,7.41
2022-11-28T04:09:36.772Z,7.41
2022-11-28T04:12:11.159Z,7.36
2022-11-28T04:14:43.058Z,7.40
2022-11-28T04:17:17.283Z,7.37
2022-11-28T04:19:50.812Z,7.30
2022-11-28T04:22:25.533Z,7.33
2022-11-28T04:24:57.085Z,7.32
2022-11-28T04:27:30.076Z,7.30
2022-11-28T04:30:02.106Z,7.22
2022-11-28T04:32:32.911Z,7.29
2022-11-28T04:35:06.269Z,7.30
2022-11-28T04:37:51.509Z,7.27
2022-11-28T04:40:21.555Z,7.24
2022-11-28T04:42:53.658Z,7.27
2022-11-28T04:45:27.880Z,7.29
2022-11-28T04:47:56.237Z,7.25
2022-11-28T04:50:26.686Z,7.19
2022-11-28T04:53:00.656Z,7.14
2022-11-28T04:55:35.965Z,7.21
2022-11-28T04:58:11.908Z,7.30
2022-11-28T05:00:41.606Z,7.21
2022-11-28T05:03:11.066Z,7.14
2022-11-28T05:05:47.962Z,7.14
2022-11-28T05:08:18.508Z,7.02
2022-11-28T05:10:46.388Z,6.91
2022-11-28T05:13:14.261Z,6.90
2022-11-28T05:15:42.092Z,7.01
2022-11-28T05:18:10.382Z,7.15
2022-11-28T05:20:39.781Z,7.17
2022-11-28T05:23:08.090Z,7.29
2022-11-28T05:25:38.800Z,7.45
2022-11-28T05:28:06.712Z,7.51
2022-11-28T05:30:34.580Z,7.48
2022-11-28T05:33:02.816Z,7.53
2022-11-28T05:35:30.800Z,7.52
2022-11-28T05:37:58.712Z,7.51
2022-11-28T05:40:26.539Z,7.36
2022-11-28T05:42:55.790Z,7.38
2022-11-28T05:45:23.657Z,7.39
2022-11-28T05:47:51.543Z,7.35
2022-11-28T05:50:19.383Z,7.27
2022-11-28T05:52:47.299Z,7.21
2022-11-28T05:55:15.340Z,7.21
2022-11-28T05:57:43.266Z,7.17
2022-11-28T06:00:14.443Z,7.21
2022-11-28T06:02:42.323Z,7.09
2022-11-28T06:05:34.695Z,7.08
2022-11-28T06:07:58.397Z,7.01
2022-11-28T06:10:26.416Z,7.00
2022-11-28T06:12:54.365Z,6.99
2022-11-28T06:15:23.677Z,7.07
2022-11-28T06:17:51.637Z,7.27
2022-11-28T06:20:19.672Z,7.24
2022-11-28T06:22:47.748Z,7.24
2022-11-28T06:25:15.679Z,7.32
2022-11-28T06:27:43.499Z,7.36
2022-11-28T06:30:11.707Z,7.40
2022-11-28T06:32:40.981Z,7.25
2022-11-28T06:35:09.404Z,7.26
2022-11-28T06:37:37.429Z,7.08
2022-11-28T06:40:06.488Z,7.08
2022-11-28T06:42:36.101Z,7.27
2022-11-28T06:45:04.521Z,7.31
2022-11-28T06:47:32.404Z,7.28
2022-11-28T06:50:01.561Z,7.22
2022-11-28T06:52:30.171Z,7.24
2022-11-28T06:54:58.093Z,7.22
2022-11-28T06:57:25.904Z,7.38
2022-11-28T06:59:53.785Z,7.30
2022-11-28T07:02:22.943Z,7.39
2022-11-28T07:04:50.800Z,7.35
2022-11-28T07:07:20.084Z,7.36
2022-11-28T07:09:48.060Z,7.30
2022-11-28T07:12:15.948Z,7.30
2022-11-28T07:14:43.925Z,7.39
2022-11-28T07:17:11.783Z,7.36
2022-11-28T07:19:39.855Z,7.37
2022-11-28T07:22:07.784Z,7.35
2022-11-28T07:24:37.055Z,7.32
2022-11-28T07:27:05.055Z,7.22
2022-11-28T07:29:36.471Z,7.21
2022-11-28T07:32:05.960Z,7.31
2022-11-28T07:34:34.000Z,7.33
2022-11-28T07:37:01.871Z,7.25
2022-11-28T07:39:29.946Z,7.30
2022-11-28T07:41:59.856Z,7.31
2022-11-28T07:44:27.804Z,7.35
2022-11-28T07:46:55.886Z,7.42
2022-11-28T07:49:23.731Z,7.51
2022-11-28T07:51:51.583Z,7.50
2022-11-28T07:54:19.502Z,7.55
2022-11-28T07:59:36.736Z,7.70
2022-11-28T08:02:04.769Z,7.67
2022-11-28T08:04:32.696Z,7.67
2022-11-28T08:07:01.204Z,7.66
2022-11-28T08:09:29.626Z,7.75
2022-11-28T08:11:57.779Z,7.69
2022-11-28T08:14:27.071Z,7.73
2022-11-28T08:16:56.329Z,7.79
2022-11-28T08:19:24.700Z,7.88
2022-11-28T08:22:07.668Z,7.91
2022-11-28T08:24:35.554Z,8.00
2022-11-28T08:27:06.392Z,8.00
2022-11-28T08:29:34.231Z,8.06
2022-11-28T08:32:03.455Z,8.00
2022-11-28T08:34:31.280Z,7.90
2022-11-28T08:36:59.218Z,7.87
2022-11-28T08:39:27.259Z,7.80
2022-11-28T08:41:57.210Z,7.84
2022-11-28T08:44:25.722Z,8.02
2022-11-28T08:46:53.898Z,7.84
2022-11-28T08:49:23.098Z,7.80
2022-11-28T08:51:51.127Z,7.91
2022-11-28T08:54:19.130Z,7.96
2022-11-28T08:56:48.385Z,7.96
2022-11-28T08:59:16.531Z,7.91
2022-11-28T09:01:44.454Z,7.86
2022-11-28T09:04:12.378Z,7.74
2022-11-28T09:06:42.099Z,7.81
2022-11-28T09:09:10.327Z,7.84
2022-11-28T09:11:38.850Z,7.84
2022-11-28T09:14:07.098Z,7.84
2022-11-28T09:16:35.016Z,7.91
2022-11-28T09:19:02.951Z,8.09
2022-11-28T09:21:30.911Z,8.11
2022-11-28T09:24:00.188Z,8.15
2022-11-28T09:26:29.913Z,8.19
2022-11-28T09:28:57.966Z,8.02
2022-11-28T09:31:26.836Z,8.06
2022-11-28T09:33:55.112Z,8.17
2022-11-28T09:36:25.017Z,8.20
2022-11-28T09:38:52.846Z,8.12
2022-11-28T09:41:54.692Z,7.94
2022-11-28T09:44:25.292Z,7.80
2022-11-28T09:46:56.639Z,7.89
2022-11-28T09:49:39.828Z,7.96
2022-11-28T09:52:22.552Z,7.95
2022-11-28T09:54:53.848Z,8.04
2022-11-28T09:57:33.136Z,8.05
2022-11-28T10:00:01.763Z,8.05
2022-11-28T10:02:36.343Z,8.03
2022-11-28T10:05:16.291Z,8.22
2022-11-28T10:07:57.815Z,8.26
2022-11-28T10:10:39.854Z,8.37
2022-11-28T10:13:15.745Z,8.36
2022-11-28T10:15:51.791Z,8.35
2022-11-28T10:18:34.651Z,8.24
2022-11-28T10:21:06.439Z,8.21
2022-11-28T10:23:41.278Z,8.23
2022-11-28T10:26:14.457Z,8.29
2022-11-28T10:28:49.142Z,8.32
2022-11-28T10:31:32.201Z,8.02
2022-11-28T10:34:06.809Z,7.98
2022-11-28T10:36:48.342Z,8.13
2022-11-28T10:39:16.323Z,8.06
2022-11-28T10:42:11.580Z,7.86
2022-11-28T10:44:52.570Z,7.88
2022-11-28T10:47:31.029Z,7.95
2022-11-28T10:50:04.570Z,7.78
2022-11-28T10:52:44.233Z,7.86
2022-11-28T10:55:28.014Z,7.94
2022-11-28T10:58:08.263Z,8.15
2022-11-28T11:00:39.424Z,8.07
2022-11-28T11:03:12.931Z,8.01
2022-11-28T11:05:42.597Z,7.99
2022-11-28T11:08:19.072Z,8.00
2022-11-28T11:10:50.611Z,8.06
2022-11-28T11:13:20.449Z,8.06
2022-11-28T11:15:52.955Z,8.15
2022-11-28T11:18:27.354Z,8.00
2022-11-28T11:21:09.660Z,7.97
2022-11-28T11:23:38.614Z,7.99
2022-11-28T11:26:10.254Z,8.03
2022-11-28T11:28:45.030Z,8.13
2022-11-28T11:31:24.516Z,8.25
2022-11-28T11:33:54.387Z,8.20
2022-11-28T11:36:27.089Z,8.18
2022-11-28T11:39:07.842Z,8.08
2022-11-28T11:41:35.781Z,8.06
2022-11-28T11:44:29.734Z,8.00
2022-11-28T11:47:03.639Z,8.06
2022-11-28T11:49:34.046Z,7.93
2022-11-28T11:52:04.628Z,7.92
2022-11-28T11:54:32.567Z,7.97
2022-11-28T11:57:30.592Z,7.82
2022-11-28T11:59:54.514Z,7.89
2022-11-28T12:02:29.066Z,7.83
2022-11-28T12:05:03.487Z,7.97
2022-11-28T12:07:38.114Z,8.04
2022-11-28T12:10:12.525Z,8.01
2022-11-28T12:12:42.022Z,7.95
2022-11-28T12:15:18.950Z,7.99
2022-11-28T12:17:59.329Z,7.92
2022-11-28T12:20:49.540Z,7.73
2022-11-28T12:23:33.094Z,7.80
2022-11-28T12:26:07.792Z,7.74
2022-11-28T12:28:50.525Z,7.63
2022-11-28T12:31:29.635Z,7.52
2022-11-28T12:34:06.768Z,7.50
2022-11-28T12:36:40.663Z,7.33
2022-11-28T12:39:19.415Z,7.39
2022-11-28T12:42:13.911Z,7.36
2022-11-28T12:44:55.008Z,7.36
2022-11-28T12:47:35.077Z,7.48
2022-11-28T12:50:19.703Z,7.35
2022-11-28T12:52:54.285Z,7.47
2022-11-28T12:55:29.823Z,7.31
2022-11-28T12:58:06.838Z,7.33
2022-11-28T13:00:39.793Z,7.29
2022-11-28T13:03:20.213Z,7.28
2022-11-28T13:06:03.557Z,7.35
2022-11-28T13:08:48.170Z,7.35
2022-11-28T13:11:33.717Z,7.28
2022-11-28T13:14:09.772Z,7.35
2022-11-28T13:16:46.938Z,7.35
2022-11-28T13:19:29.873Z,7.33
2022-11-28T13:22:08.817Z,7.47
2022-11-28T13:24:43.626Z,7.45
2022-11-28T13:27:22.070Z,7.46
2022-11-28T13:29:59.990Z,7.44
2022-11-28T13:32:37.181Z,7.52
2022-11-28T13:35:06.509Z,7.47
2022-11-28T13:40:41.269Z,7.24
2022-11-28T13:43:19.258Z,7.26
2022-11-28T13:45:48.510Z,7.31
2022-11-28T13:49:14.220Z,7.26
2022-11-28T13:51:43.120Z,7.37
2022-11-28T13:54:46.518Z,7.32
2022-11-28T13:57:31.639Z,7.14
2022-11-28T14:00:27.885Z,7.19
2022-11-28T14:03:00.112Z,7.12
2022-11-28T14:05:34.873Z,7.22
2022-11-28T14:08:04.839Z,7.25
2022-11-28T14:10:49.057Z,7.17
2022-11-28T14:13:47.963Z,7.17
2022-11-28T14:16:28.881Z,7.17
2022-11-28T14:19:06.890Z,7.12
2022-11-28T14:21:50.242Z,7.17
2022-11-28T14:24:29.365Z,7.24
2022-11-28T14:27:02.008Z,7.16
2022-11-28T14:29:35.419Z,7.01
2022-11-28T14:34:52.226Z,6.75
2022-11-28T14:37:53.170Z,6.75
2022-11-28T14:41:07.098Z,6.69
2022-11-28T14:43:41.320Z,6.64
2022-11-28T14:46:26.041Z,6.64
2022-11-28T14:49:22.397Z,6.74
2022-11-28T14:52:37.646Z,6.81
2022-11-28T14:55:16.422Z,6.71
2022-11-28T14:57:57.899Z,6.81
2022-11-28T15:00:29.831Z,6.73
2022-11-28T15:03:28.412Z,6.77
2022-11-28T15:06:00.927Z,6.89
2022-11-28T15:08:42.035Z,6.90
2022-11-28T15:11:21.399Z,6.91
2022-11-28T15:14:06.472Z,6.94
2022-11-28T15:16:40.047Z,6.94
2022-11-28T15:19:17.272Z,6.98
2022-11-28T15:21:47.177Z,6.90
2022-11-28T15:24:29.947Z,6.75
2022-11-28T15:26:59.671Z,6.77
2022-11-28T15:29:29.588Z,6.74
2022-11-28T15:32:00.112Z,6.77
2022-11-28T15:34:30.760Z,6.85
2022-11-28T15:37:00.822Z,6.83
2022-11-28T15:39:34.988Z,6.84
2022-11-28T15:42:05.869Z,6.88
2022-11-28T15:44:34.211Z,6.91
2022-11-28T15:47:03.681Z,6.90
2022-11-28T15:49:33.476Z,6.93
2022-11-28T15:52:03.810Z,7.03
2022-11-28T15:54:39.365Z,7.00
2022-11-28T15:57:07.417Z,7.07
2022-11-28T15:59:36.378Z,6.96
2022-11-28T16:02:16.569Z,6.90
2022-11-28T16:04:46.072Z,6.93
2022-11-28T16:07:16.165Z,6.99
2022-11-28T16:09:55.136Z,7.07
2022-11-28T16:12:23.554Z,7.06
2022-11-28T16:14:53.409Z,6.99
2022-11-28T16:17:27.190Z,7.00
2022-11-28T16:19:56.636Z,6.85
2022-11-28T16:22:30.484Z,6.78
2022-11-28T16:25:00.163Z,6.91
2022-11-28T16:27:34.349Z,7.07
2022-11-28T16:30:03.190Z,7.08
2022-11-28T16:32:39.399Z,7.03
2022-11-28T16:35:12.576Z,6.98
2022-11-28T16:37:41.003Z,7.06
2022-11-28T16:40:17.093Z,6.95
2022-11-28T16:42:53.877Z,6.89
2022-11-28T16:45:25.531Z,6.97
2022-11-28T16:48:02.191Z,7.03
2022-11-28T16:50:30.329Z,6.99
2022-11-28T16:52:59.002Z,7.11
2022-11-28T16:55:44.390Z,7.08
2022-11-28T16:58:21.612Z,7.08
2022-11-28T17:01:01.900Z,6.93
2022-11-28T17:03:51.368Z,6.96
2022-11-28T17:06:28.886Z,7.08
2022-11-28T17:08:58.550Z,7.07
2022-11-28T17:11:32.246Z,7.06
2022-11-28T17:14:02.702Z,7.05
2022-11-28T17:16:33.587Z,7.10
2022-11-28T17:19:03.015Z,7.09
2022-11-28T17:21:35.446Z,7.10
2022-11-28T17:24:03.472Z,7.17
2022-11-28T17:26:33.124Z,7.13
2022-11-28T17:29:01.456Z,7.02
2022-11-28T17:31:29.367Z,6.92
2022-11-28T17:33:57.420Z,7.08
2022-11-28T17:36:26.695Z,7.20
2022-11-28T17:38:54.599Z,7.14
2022-11-28T17:41:23.295Z,7.03
2022-11-28T17:43:51.174Z,7.09
2022-11-28T17:46:21.488Z,7.18
2022-11-28T17:48:49.497Z,7.24
2022-11-28T17:51:17.585Z,7.28
2022-11-28T17:53:49.010Z,7.29
2022-11-28T17:56:17.028Z,7.28
2022-11-28T17:58:45.031Z,7.27
2022-11-28T18:01:13.955Z,7.24
2022-11-28T18:03:42.085Z,7.20
2022-11-28T18:06:16.474Z,7.24
2022-11-28T18:08:44.546Z,7.23
2022-11-28T18:11:15.148Z,7.27
2022-11-28T18:13:44.756Z,7.13
2022-11-28T18:16:14.016Z,7.14
2022-11-28T18:18:42.079Z,6.99
2022-11-28T18:21:11.150Z,6.94
2022-11-28T18:23:40.079Z,7.01
2022-11-28T18:26:09.676Z,7.00
2022-11-28T18:28:39.458Z,7.01
2022-11-28T18:31:11.903Z,7.05
2022-11-28T18:33:40.358Z,7.10
2022-11-28T18:36:12.502Z,7.11
2022-11-28T18:38:40.561Z,7.11
2022-11-28T18:41:10.425Z,7.01
2022-11-28T18:43:39.876Z,7.06
2022-11-28T18:46:09.293Z,6.99
2022-11-28T18:48:38.433Z,6.92
2022-11-28T18:51:12.688Z,6.99
2022-11-28T18:53:40.722Z,6.95
2022-11-28T18:56:09.682Z,6.95
2022-11-28T18:58:40.972Z,7.11
2022-11-28T19:01:13.157Z,7.14
2022-11-28T19:03:42.562Z,7.14
2022-11-28T19:06:12.935Z,7.14
2022-11-28T19:08:41.387Z,7.14
2022-11-28T19:11:11.304Z,7.16
2022-11-28T19:13:41.241Z,7.12
2022-11-28T19:16:10.916Z,7.09
2022-11-28T19:18:39.802Z,7.18
2022-11-28T19:21:08.867Z,7.17
2022-11-28T19:23:37.249Z,7.08
2022-11-28T19:26:06.192Z,7.05
2022-11-28T19:28:35.514Z,7.12
2022-11-28T19:31:08.047Z,7.14
2022-11-28T19:33:35.987Z,7.10
2022-11-28T19:36:04.235Z,7.03
2022-11-28T19:38:32.319Z,6.99
2022-11-28T19:41:00.250Z,7.02
2022-11-28T19:43:28.110Z,7.04
2022-11-28T19:45:56.735Z,7.05
2022-11-28T19:48:26.070Z,7.09
2022-11-28T19:50:54.479Z,7.12
2022-11-28T19:53:23.022Z,7.22
2022-11-28T19:55:50.849Z,7.31
2022-11-28T19:58:19.573Z,7.26
2022-11-28T20:00:47.606Z,7.33
2022-11-28T20:03:18.174Z,7.27
2022-11-28T20:05:47.502Z,7.16
2022-11-28T20:08:15.445Z,7.24
2022-11-28T20:10:43.543Z,7.37
2022-11-28T20:13:11.613Z,7.41
2022-11-28T20:15:39.540Z,7.34
2022-11-28T20:18:07.447Z,7.39
2022-11-28T20:20:35.957Z,7.38
2022-11-28T20:23:05.735Z,7.21
2022-11-28T20:25:34.074Z,7.25
2022-11-28T20:28:02.159Z,7.32
2022-11-28T20:30:32.963Z,7.38
2022-11-28T20:33:00.805Z,7.44
2022-11-28T20:35:29.088Z,7.52
2022-11-28T20:37:57.095Z,7.52
2022-11-28T20:40:26.408Z,7.54
2022-11-28T20:42:54.489Z,7.46
2022-11-28T20:45:22.279Z,7.51
2022-11-28T20:47:50.247Z,7.58
2022-11-28T20:50:18.347Z,7.58
2022-11-28T20:52:46.324Z,7.45
2022-11-28T20:55:14.144Z,7.25
2022-11-28T20:57:43.344Z,7.23
2022-11-28T21:00:12.395Z,7.18
2022-11-28T21:02:40.525Z,7.17
2022-11-28T21:05:09.068Z,7.14
2022-11-28T21:07:37.003Z,7.14
2022-11-28T21:10:05.394Z,7.14
2022-11-28T21:12:34.010Z,7.18
2022-11-28T21:15:03.383Z,7.21
2022-11-28T21:17:31.234Z,7.12
2022-11-28T21:19:59.065Z,7.18
2022-11-28T21:22:27.191Z,7.19
2022-11-28T21:24:54.970Z,7.12
2022-11-28T21:27:23.001Z,7.15
2022-11-28T21:29:52.056Z,7.22
2022-11-28T21:32:21.320Z,7.33
2022-11-28T21:34:49.187Z,7.30
2022-11-28T21:37:16.958Z,7.27
2022-11-28T21:39:44.925Z,7.31
2022-11-28T21:42:17.455Z,7.37
2022-11-28T21:44:48.146Z,7.36
2022-11-28T21:47:16.084Z,7.38
2022-11-28T21:49:45.426Z,7.45
2022-11-28T21:52:13.562Z,7.45
2022-11-28T21:54:41.512Z,7.42
2022-11-28T21:57:09.292Z,7.36
2022-11-28T21:59:37.113Z,7.38
2022-11-28T22:02:11.288Z,7.40
2022-11-28T22:04:39.757Z,7.52
2022-11-28T22:07:09.547Z,7.57
2022-11-28T22:09:37.452Z,7.53
2022-11-28T22:12:05.827Z,7.68
2022-11-28T22:14:36.813Z,7.71
2022-11-28T22:17:04.997Z,7.64
2022-11-28T22:19:32.932Z,7.64
2022-11-28T22:22:00.955Z,7.65
2022-11-28T22:24:30.354Z,7.70
2022-11-28T22:26:58.503Z,7.65
2022-11-28T22:29:26.764Z,7.65
2022-11-28T22:31:54.732Z,7.62
2022-11-28T22:34:23.087Z,7.63
2022-11-28T22:36:51.229Z,7.53
2022-11-28T22:39:19.065Z,7.46
2022-11-28T22:41:48.394Z,7.50
2022-11-28T22:44:16.349Z,7.35
2022-11-28T22:46:44.222Z,7.35
2022-11-28T22:49:12.166Z,7.37
2022-11-28T22:51:41.329Z,7.34
2022-11-28T22:54:12.574Z,7.34
2022-11-28T22:56:41.112Z,7.40
2022-11-28T22:59:14.466Z,7.26
2022-11-28T23:01:43.664Z,7.24
2022-11-28T23:04:11.747Z,7.23
2022-11-28T23:06:39.861Z,7.24
2022-11-28T23:09:09.407Z,7.36
2022-11-28T23:11:40.242Z,7.40
2022-11-28T23:14:08.180Z,7.49
2022-11-28T23:16:39.192Z,7.43
2022-11-28T23:19:09.134Z,7.37
2022-11-28T23:21:39.057Z,7.31
2022-11-28T23:24:08.153Z,7.39
2022-11-28T23:26:38.175Z,7.32
2022-11-28T23:29:06.920Z,7.23
2022-11-28T23:31:39.021Z,7.22
2022-11-28T23:34:08.077Z,7.19
2022-11-28T23:36:42.451Z,7.27
2022-11-28T23:39:13.835Z,7.16
2022-11-28T23:41:42.623Z,7.21
2022-11-28T23:44:11.664Z,7.33
2022-11-28T23:46:41.860Z,7.43
2022-11-28T23:49:10.526Z,7.37
2022-11-28T23:51:38.653Z,7.43
2022-11-28T23:54:07.315Z,7.44
2022-11-28T23:56:36.978Z,7.35
2022-11-28T23:59:06.869Z,7.29
